sensor_id;sensor_type;location;lat;lon;timestamp;P1;durP1;ratioP1;P2;durP2;ratioP2
74535;SDS011;63013;51.104;-115.370;2022-09-29T00:01:13;6.70;;;3.00;;
74535;SDS011;63013;51.104;-115.370;2022-09-29T00:03:42;5.60;;;2.70;;
74535;SDS011;63013;51.104;-115.370;2022-09-29T00:06:14;6.80;;;3.40;;
74535;SDS011;63013;51.104;-115.370;2022-09-29T00:08:44;7.10;;;3.50;;
74535;SDS011;63013;51.104;-115.370;2022-09-29T00:11:17;6.20;;;3.00;;
74535;SDS011;63013;51.104;-115.370;2022-09-29T00:13:46;7.60;;;3.30;;
74535;SDS011;63013;51.104;-115.370;2022-09-29T00:16:14;5.70;;;3.10;;
74535;SDS011;63013;51.104;-115.370;2022-09-29T00:18:44;7.50;;;3.20;;
74535;SDS011;63013;51.104;-115.370;2022-09-29T00:21:18;6.50;;;3.40;;
74535;SDS011;63013;51.104;-115.370;2022-09-29T00:23:46;7.10;;;3.10;;
74535;SDS011;63013;51.104;-115.370;2022-09-29T00:26:19;5.80;;;2.80;;
74535;SDS011;63013;51.104;-115.370;2022-09-29T00:28:54;9.80;;;3.60;;
74535;SDS011;63013;51.104;-115.370;2022-09-29T00:31:24;8.20;;;3.10;;
74535;SDS011;63013;51.104;-115.370;2022-09-29T00:33:54;7.00;;;3.10;;
74535;SDS011;63013;51.104;-115.370;2022-09-29T00:36:22;6.40;;;3.20;;
74535;SDS011;63013;51.104;-115.370;2022-09-29T00:38:50;7.00;;;3.30;;
74535;SDS011;63013;51.104;-115.370;2022-09-29T00:41:21;3.80;;;3.00;;
74535;SDS011;63013;51.104;-115.370;2022-09-29T00:43:53;5.00;;;2.60;;
74535;SDS011;63013;51.104;-115.370;2022-09-29T00:54:56;6.40;;;2.80;;
74535;SDS011;63013;51.104;-115.370;2022-09-29T00:57:30;5.30;;;2.60;;
74535;SDS011;63013;51.104;-115.370;2022-09-29T01:00:11;6.10;;;2.60;;
74535;SDS011;63013;51.104;-115.370;2022-09-29T01:02:46;6.60;;;2.80;;
74535;SDS011;63013;51.104;-115.370;2022-09-29T01:05:39;5.10;;;2.80;;
74535;SDS011;63013;51.104;-115.370;2022-09-29T01:08:15;5.00;;;2.40;;
74535;SDS011;63013;51.104;-115.370;2022-09-29T01:10:50;4.80;;;3.10;;
74535;SDS011;63013;51.104;-115.370;2022-09-29T01:13:18;4.30;;;2.30;;
74535;SDS011;63013;51.104;-115.370;2022-09-29T01:15:45;4.70;;;2.80;;
74535;SDS011;63013;51.104;-115.370;2022-09-29T01:18:12;3.70;;;2.60;;
74535;SDS011;63013;51.104;-115.370;2022-09-29T01:21:09;4.20;;;2.70;;
74535;SDS011;63013;51.104;-115.370;2022-09-29T01:40:05;3.00;;;2.40;;
74535;SDS011;63013;51.104;-115.370;2022-09-29T01:43:04;4.80;;;2.90;;
74535;SDS011;63013;51.104;-115.370;2022-09-29T01:45:52;4.70;;;2.20;;
74535;SDS011;63013;51.104;-115.370;2022-09-29T01:48:31;4.10;;;2.40;;
74535;SDS011;63013;51.104;-115.370;2022-09-29T01:51:06;4.00;;;2.40;;
74535;SDS011;63013;51.104;-115.370;2022-09-29T01:53:54;4.20;;;2.40;;
74535;SDS011;63013;51.104;-115.370;2022-09-29T01:56:40;4.10;;;2.20;;
74535;SDS011;63013;51.104;-115.370;2022-09-29T02:05:40;3.30;;;2.20;;
74535;SDS011;63013;51.104;-115.370;2022-09-29T02:08:35;4.80;;;2.20;;
74535;SDS011;63013;51.104;-115.370;2022-09-29T02:11:10;3.90;;;2.50;;
74535;SDS011;63013;51.104;-115.370;2022-09-29T02:16:25;4.00;;;2.30;;
74535;SDS011;63013;51.104;-115.370;2022-09-29T02:19:13;3.90;;;2.20;;
74535;SDS011;63013;51.104;-115.370;2022-09-29T02:21:44;2.80;;;2.10;;
74535;SDS011;63013;51.104;-115.370;2022-09-29T02:24:12;3.30;;;2.30;;
74535;SDS011;63013;51.104;-115.370;2022-09-29T02:26:40;2.50;;;2.20;;
74535;SDS011;63013;51.104;-115.370;2022-09-29T02:29:10;3.80;;;1.90;;
74535;SDS011;63013;51.104;-115.370;2022-09-29T02:31:37;4.20;;;2.20;;
74535;SDS011;63013;51.104;-115.370;2022-09-29T02:34:07;2.70;;;2.10;;
74535;SDS011;63013;51.104;-115.370;2022-09-29T02:37:16;3.60;;;2.10;;
74535;SDS011;63013;51.104;-115.370;2022-09-29T02:42:39;3.70;;;2.10;;
74535;SDS011;63013;51.104;-115.370;2022-09-29T02:51:30;4.60;;;2.10;;
74535;SDS011;63013;51.104;-115.370;2022-09-29T02:54:18;3.30;;;2.10;;
74535;SDS011;63013;51.104;-115.370;2022-09-29T02:56:57;4.00;;;2.20;;
74535;SDS011;63013;51.104;-115.370;2022-09-29T03:00:18;3.40;;;2.20;;
74535;SDS011;63013;51.104;-115.370;2022-09-29T03:02:46;3.90;;;2.40;;
74535;SDS011;63013;51.104;-115.370;2022-09-29T03:05:18;4.10;;;2.10;;
74535;SDS011;63013;51.104;-115.370;2022-09-29T03:07:48;5.00;;;2.30;;
74535;SDS011;63013;51.104;-115.370;2022-09-29T03:10:16;3.50;;;2.50;;
74535;SDS011;63013;51.104;-115.370;2022-09-29T03:12:43;4.00;;;2.10;;
74535;SDS011;63013;51.104;-115.370;2022-09-29T03:15:12;3.40;;;2.10;;
74535;SDS011;63013;51.104;-115.370;2022-09-29T03:17:40;3.70;;;2.00;;
74535;SDS011;63013;51.104;-115.370;2022-09-29T03:20:08;3.70;;;2.20;;
74535;SDS011;63013;51.104;-115.370;2022-09-29T03:22:36;5.30;;;2.10;;
74535;SDS011;63013;51.104;-115.370;2022-09-29T03:25:04;4.10;;;1.80;;
74535;SDS011;63013;51.104;-115.370;2022-09-29T03:27:32;2.90;;;2.20;;
74535;SDS011;63013;51.104;-115.370;2022-09-29T03:30:01;2.70;;;2.00;;
74535;SDS011;63013;51.104;-115.370;2022-09-29T03:32:29;2.90;;;1.90;;
74535;SDS011;63013;51.104;-115.370;2022-09-29T03:34:56;3.10;;;2.20;;
74535;SDS011;63013;51.104;-115.370;2022-09-29T03:37:23;4.50;;;2.10;;
74535;SDS011;63013;51.104;-115.370;2022-09-29T03:39:51;3.30;;;2.10;;
74535;SDS011;63013;51.104;-115.370;2022-09-29T03:42:17;3.20;;;1.90;;
74535;SDS011;63013;51.104;-115.370;2022-09-29T03:44:47;3.70;;;1.80;;
74535;SDS011;63013;51.104;-115.370;2022-09-29T03:47:15;4.00;;;2.20;;
74535;SDS011;63013;51.104;-115.370;2022-09-29T03:49:42;3.20;;;2.00;;
74535;SDS011;63013;51.104;-115.370;2022-09-29T03:52:09;3.20;;;2.10;;
74535;SDS011;63013;51.104;-115.370;2022-09-29T03:54:36;3.00;;;2.10;;
74535;SDS011;63013;51.104;-115.370;2022-09-29T03:57:03;3.80;;;2.10;;
74535;SDS011;63013;51.104;-115.370;2022-09-29T03:59:30;3.40;;;2.30;;
74535;SDS011;63013;51.104;-115.370;2022-09-29T04:01:58;3.40;;;2.20;;
74535;SDS011;63013;51.104;-115.370;2022-09-29T04:04:25;3.10;;;2.00;;
74535;SDS011;63013;51.104;-115.370;2022-09-29T04:06:52;3.90;;;2.10;;
74535;SDS011;63013;51.104;-115.370;2022-09-29T04:09:19;3.10;;;2.00;;
74535;SDS011;63013;51.104;-115.370;2022-09-29T04:11:47;3.60;;;2.40;;
74535;SDS011;63013;51.104;-115.370;2022-09-29T04:14:14;3.90;;;2.00;;
74535;SDS011;63013;51.104;-115.370;2022-09-29T04:16:41;3.40;;;2.00;;
74535;SDS011;63013;51.104;-115.370;2022-09-29T04:19:08;2.50;;;1.80;;
74535;SDS011;63013;51.104;-115.370;2022-09-29T04:21:35;2.40;;;2.00;;
74535;SDS011;63013;51.104;-115.370;2022-09-29T04:24:02;4.70;;;2.00;;
74535;SDS011;63013;51.104;-115.370;2022-09-29T04:26:29;2.40;;;1.90;;
74535;SDS011;63013;51.104;-115.370;2022-09-29T04:28:56;3.90;;;1.90;;
74535;SDS011;63013;51.104;-115.370;2022-09-29T04:31:23;3.10;;;1.70;;
74535;SDS011;63013;51.104;-115.370;2022-09-29T04:33:50;3.30;;;1.90;;
74535;SDS011;63013;51.104;-115.370;2022-09-29T04:36:17;3.30;;;2.00;;
74535;SDS011;63013;51.104;-115.370;2022-09-29T04:38:45;2.90;;;1.80;;
74535;SDS011;63013;51.104;-115.370;2022-09-29T04:41:13;3.40;;;2.10;;
74535;SDS011;63013;51.104;-115.370;2022-09-29T04:43:40;2.70;;;1.90;;
74535;SDS011;63013;51.104;-115.370;2022-09-29T04:46:08;3.80;;;2.20;;
74535;SDS011;63013;51.104;-115.370;2022-09-29T04:48:35;2.20;;;1.70;;
74535;SDS011;63013;51.104;-115.370;2022-09-29T04:51:04;3.10;;;2.10;;
74535;SDS011;63013;51.104;-115.370;2022-09-29T04:53:32;2.90;;;2.00;;
74535;SDS011;63013;51.104;-115.370;2022-09-29T04:56:04;3.30;;;1.90;;
74535;SDS011;63013;51.104;-115.370;2022-09-29T04:58:33;2.50;;;1.90;;
74535;SDS011;63013;51.104;-115.370;2022-09-29T05:01:08;2.90;;;1.80;;
74535;SDS011;63013;51.104;-115.370;2022-09-29T05:03:39;3.40;;;1.80;;
74535;SDS011;63013;51.104;-115.370;2022-09-29T05:06:08;3.80;;;2.20;;
74535;SDS011;63013;51.104;-115.370;2022-09-29T05:08:35;3.50;;;1.80;;
74535;SDS011;63013;51.104;-115.370;2022-09-29T05:11:04;2.60;;;1.80;;
74535;SDS011;63013;51.104;-115.370;2022-09-29T05:13:32;2.50;;;1.90;;
74535;SDS011;63013;51.104;-115.370;2022-09-29T05:16:00;3.00;;;1.90;;
74535;SDS011;63013;51.104;-115.370;2022-09-29T05:18:27;3.70;;;1.80;;
74535;SDS011;63013;51.104;-115.370;2022-09-29T05:20:55;2.70;;;1.80;;
74535;SDS011;63013;51.104;-115.370;2022-09-29T05:23:29;3.30;;;1.90;;
74535;SDS011;63013;51.104;-115.370;2022-09-29T05:26:03;2.10;;;1.90;;
74535;SDS011;63013;51.104;-115.370;2022-09-29T05:28:32;3.00;;;1.90;;
74535;SDS011;63013;51.104;-115.370;2022-09-29T05:31:04;3.20;;;2.20;;
74535;SDS011;63013;51.104;-115.370;2022-09-29T05:33:33;4.50;;;2.10;;
74535;SDS011;63013;51.104;-115.370;2022-09-29T05:36:07;2.30;;;1.90;;
74535;SDS011;63013;51.104;-115.370;2022-09-29T05:38:36;4.40;;;1.90;;
74535;SDS011;63013;51.104;-115.370;2022-09-29T05:41:12;2.80;;;2.00;;
74535;SDS011;63013;51.104;-115.370;2022-09-29T05:43:39;3.40;;;2.00;;
74535;SDS011;63013;51.104;-115.370;2022-09-29T05:46:10;2.20;;;1.60;;
74535;SDS011;63013;51.104;-115.370;2022-09-29T05:48:37;2.60;;;1.70;;
74535;SDS011;63013;51.104;-115.370;2022-09-29T05:51:14;3.30;;;1.80;;
74535;SDS011;63013;51.104;-115.370;2022-09-29T05:53:43;2.60;;;1.80;;
74535;SDS011;63013;51.104;-115.370;2022-09-29T05:56:12;2.50;;;2.10;;
74535;SDS011;63013;51.104;-115.370;2022-09-29T05:58:41;2.20;;;1.70;;
74535;SDS011;63013;51.104;-115.370;2022-09-29T06:01:10;2.60;;;1.90;;
74535;SDS011;63013;51.104;-115.370;2022-09-29T06:03:39;2.90;;;1.60;;
74535;SDS011;63013;51.104;-115.370;2022-09-29T06:06:18;3.30;;;1.70;;
74535;SDS011;63013;51.104;-115.370;2022-09-29T06:08:47;2.80;;;1.80;;
74535;SDS011;63013;51.104;-115.370;2022-09-29T06:11:18;2.60;;;1.90;;
74535;SDS011;63013;51.104;-115.370;2022-09-29T06:13:59;2.20;;;1.80;;
74535;SDS011;63013;51.104;-115.370;2022-09-29T06:16:30;3.20;;;2.00;;
74535;SDS011;63013;51.104;-115.370;2022-09-29T06:19:00;2.20;;;1.80;;
74535;SDS011;63013;51.104;-115.370;2022-09-29T06:21:30;2.20;;;1.70;;
74535;SDS011;63013;51.104;-115.370;2022-09-29T06:23:59;2.30;;;1.70;;
74535;SDS011;63013;51.104;-115.370;2022-09-29T06:26:27;2.50;;;1.90;;
74535;SDS011;63013;51.104;-115.370;2022-09-29T06:28:55;2.50;;;1.70;;
74535;SDS011;63013;51.104;-115.370;2022-09-29T06:31:25;2.40;;;1.70;;
74535;SDS011;63013;51.104;-115.370;2022-09-29T06:33:59;3.00;;;2.00;;
74535;SDS011;63013;51.104;-115.370;2022-09-29T06:36:30;3.40;;;1.70;;
74535;SDS011;63013;51.104;-115.370;2022-09-29T06:39:19;2.30;;;1.60;;
74535;SDS011;63013;51.104;-115.370;2022-09-29T06:41:46;3.00;;;1.80;;
74535;SDS011;63013;51.104;-115.370;2022-09-29T06:44:26;2.40;;;1.80;;
74535;SDS011;63013;51.104;-115.370;2022-09-29T06:46:57;2.10;;;1.60;;
74535;SDS011;63013;51.104;-115.370;2022-09-29T06:49:25;2.00;;;1.70;;
74535;SDS011;63013;51.104;-115.370;2022-09-29T06:51:52;2.20;;;1.60;;
74535;SDS011;63013;51.104;-115.370;2022-09-29T06:54:21;2.70;;;1.60;;
74535;SDS011;63013;51.104;-115.370;2022-09-29T06:56:53;2.60;;;1.60;;
74535;SDS011;63013;51.104;-115.370;2022-09-29T06:59:20;2.30;;;1.60;;
74535;SDS011;63013;51.104;-115.370;2022-09-29T07:01:47;2.10;;;1.60;;
74535;SDS011;63013;51.104;-115.370;2022-09-29T07:04:15;2.30;;;1.70;;
74535;SDS011;63013;51.104;-115.370;2022-09-29T07:06:44;3.10;;;1.70;;
74535;SDS011;63013;51.104;-115.370;2022-09-29T07:09:11;2.60;;;1.50;;
74535;SDS011;63013;51.104;-115.370;2022-09-29T07:11:44;2.70;;;1.70;;
74535;SDS011;63013;51.104;-115.370;2022-09-29T07:14:14;2.70;;;1.70;;
74535;SDS011;63013;51.104;-115.370;2022-09-29T07:16:43;2.30;;;1.60;;
74535;SDS011;63013;51.104;-115.370;2022-09-29T07:19:15;2.70;;;1.60;;
74535;SDS011;63013;51.104;-115.370;2022-09-29T07:21:44;3.30;;;1.90;;
74535;SDS011;63013;51.104;-115.370;2022-09-29T07:24:11;2.40;;;1.60;;
74535;SDS011;63013;51.104;-115.370;2022-09-29T07:26:38;2.40;;;1.60;;
74535;SDS011;63013;51.104;-115.370;2022-09-29T07:29:06;2.80;;;1.90;;
74535;SDS011;63013;51.104;-115.370;2022-09-29T07:31:33;2.40;;;1.70;;
74535;SDS011;63013;51.104;-115.370;2022-09-29T07:34:00;2.20;;;1.70;;
74535;SDS011;63013;51.104;-115.370;2022-09-29T07:36:27;2.40;;;1.60;;
74535;SDS011;63013;51.104;-115.370;2022-09-29T07:38:54;3.00;;;1.70;;
74535;SDS011;63013;51.104;-115.370;2022-09-29T07:41:22;2.20;;;1.80;;
74535;SDS011;63013;51.104;-115.370;2022-09-29T07:43:49;2.20;;;1.90;;
74535;SDS011;63013;51.104;-115.370;2022-09-29T07:46:16;2.50;;;1.70;;
74535;SDS011;63013;51.104;-115.370;2022-09-29T07:48:43;2.70;;;1.80;;
74535;SDS011;63013;51.104;-115.370;2022-09-29T07:51:13;1.80;;;1.50;;
74535;SDS011;63013;51.104;-115.370;2022-09-29T07:53:42;2.20;;;1.50;;
74535;SDS011;63013;51.104;-115.370;2022-09-29T07:56:18;3.50;;;2.10;;
74535;SDS011;63013;51.104;-115.370;2022-09-29T07:58:48;1.90;;;1.40;;
74535;SDS011;63013;51.104;-115.370;2022-09-29T08:01:17;2.50;;;1.80;;
74535;SDS011;63013;51.104;-115.370;2022-09-29T08:03:50;2.30;;;1.90;;
74535;SDS011;63013;51.104;-115.370;2022-09-29T08:06:19;2.50;;;1.80;;
74535;SDS011;63013;51.104;-115.370;2022-09-29T08:08:47;2.10;;;1.90;;
74535;SDS011;63013;51.104;-115.370;2022-09-29T08:11:17;1.60;;;1.50;;
74535;SDS011;63013;51.104;-115.370;2022-09-29T08:13:46;1.80;;;1.50;;
74535;SDS011;63013;51.104;-115.370;2022-09-29T08:16:14;2.20;;;1.50;;
74535;SDS011;63013;51.104;-115.370;2022-09-29T08:18:42;2.20;;;1.70;;
74535;SDS011;63013;51.104;-115.370;2022-09-29T08:21:11;2.20;;;1.50;;
74535;SDS011;63013;51.104;-115.370;2022-09-29T08:23:41;2.10;;;1.60;;
74535;SDS011;63013;51.104;-115.370;2022-09-29T08:26:10;2.30;;;1.60;;
74535;SDS011;63013;51.104;-115.370;2022-09-29T08:28:42;1.90;;;1.50;;
74535;SDS011;63013;51.104;-115.370;2022-09-29T08:31:13;2.60;;;1.70;;
74535;SDS011;63013;51.104;-115.370;2022-09-29T08:33:44;3.00;;;1.70;;
74535;SDS011;63013;51.104;-115.370;2022-09-29T08:36:12;1.90;;;1.50;;
74535;SDS011;63013;51.104;-115.370;2022-09-29T08:38:44;2.30;;;1.70;;
74535;SDS011;63013;51.104;-115.370;2022-09-29T08:47:21;2.10;;;1.50;;
74535;SDS011;63013;51.104;-115.370;2022-09-29T08:50:08;2.10;;;1.40;;
74535;SDS011;63013;51.104;-115.370;2022-09-29T08:53:00;1.90;;;1.60;;
74535;SDS011;63013;51.104;-115.370;2022-09-29T08:55:54;2.10;;;1.60;;
74535;SDS011;63013;51.104;-115.370;2022-09-29T08:58:25;1.90;;;1.50;;
74535;SDS011;63013;51.104;-115.370;2022-09-29T09:07:19;1.80;;;1.40;;
74535;SDS011;63013;51.104;-115.370;2022-09-29T09:15:47;1.70;;;1.40;;
74535;SDS011;63013;51.104;-115.370;2022-09-29T09:21:43;1.80;;;1.50;;
74535;SDS011;63013;51.104;-115.370;2022-09-29T09:24:44;1.90;;;1.60;;
74535;SDS011;63013;51.104;-115.370;2022-09-29T09:27:21;1.90;;;1.40;;
74535;SDS011;63013;51.104;-115.370;2022-09-29T09:30:12;2.40;;;1.80;;
74535;SDS011;63013;51.104;-115.370;2022-09-29T09:32:49;1.70;;;1.50;;
74535;SDS011;63013;51.104;-115.370;2022-09-29T09:35:33;1.90;;;1.70;;
74535;SDS011;63013;51.104;-115.370;2022-09-29T09:38:11;1.50;;;1.30;;
74535;SDS011;63013;51.104;-115.370;2022-09-29T09:40:48;1.70;;;1.30;;
74535;SDS011;63013;51.104;-115.370;2022-09-29T09:43:22;1.90;;;1.40;;
74535;SDS011;63013;51.104;-115.370;2022-09-29T09:54:50;1.80;;;1.40;;
74535;SDS011;63013;51.104;-115.370;2022-09-29T09:57:50;1.60;;;1.50;;
74535;SDS011;63013;51.104;-115.370;2022-09-29T10:03:08;2.80;;;1.40;;
74535;SDS011;63013;51.104;-115.370;2022-09-29T10:05:45;1.80;;;1.30;;
74535;SDS011;63013;51.104;-115.370;2022-09-29T10:08:28;1.90;;;1.60;;
74535;SDS011;63013;51.104;-115.370;2022-09-29T10:11:04;1.90;;;1.40;;
74535;SDS011;63013;51.104;-115.370;2022-09-29T10:13:47;1.90;;;1.50;;
74535;SDS011;63013;51.104;-115.370;2022-09-29T10:17:11;1.90;;;1.70;;
74535;SDS011;63013;51.104;-115.370;2022-09-29T10:19:56;1.40;;;1.30;;
74535;SDS011;63013;51.104;-115.370;2022-09-29T10:22:31;2.10;;;1.60;;
74535;SDS011;63013;51.104;-115.370;2022-09-29T10:25:19;1.70;;;1.50;;
74535;SDS011;63013;51.104;-115.370;2022-09-29T10:27:52;2.20;;;1.60;;
74535;SDS011;63013;51.104;-115.370;2022-09-29T10:30:22;2.30;;;1.80;;
74535;SDS011;63013;51.104;-115.370;2022-09-29T10:32:58;2.10;;;1.50;;
74535;SDS011;63013;51.104;-115.370;2022-09-29T10:35:34;1.70;;;1.30;;
74535;SDS011;63013;51.104;-115.370;2022-09-29T10:38:23;2.30;;;1.60;;
74535;SDS011;63013;51.104;-115.370;2022-09-29T10:40:56;1.90;;;1.40;;
74535;SDS011;63013;51.104;-115.370;2022-09-29T10:43:30;2.00;;;1.70;;
74535;SDS011;63013;51.104;-115.370;2022-09-29T10:49:13;2.60;;;1.40;;
74535;SDS011;63013;51.104;-115.370;2022-09-29T10:51:52;1.80;;;1.40;;
74535;SDS011;63013;51.104;-115.370;2022-09-29T10:54:24;1.50;;;1.40;;
74535;SDS011;63013;51.104;-115.370;2022-09-29T10:56:53;1.60;;;1.50;;
74535;SDS011;63013;51.104;-115.370;2022-09-29T10:59:23;1.90;;;1.30;;
74535;SDS011;63013;51.104;-115.370;2022-09-29T11:01:58;2.60;;;1.30;;
74535;SDS011;63013;51.104;-115.370;2022-09-29T11:04:32;2.20;;;1.50;;
74535;SDS011;63013;51.104;-115.370;2022-09-29T11:07:10;1.30;;;1.10;;
74535;SDS011;63013;51.104;-115.370;2022-09-29T11:09:40;1.70;;;1.60;;
74535;SDS011;63013;51.104;-115.370;2022-09-29T11:12:31;2.10;;;1.30;;
74535;SDS011;63013;51.104;-115.370;2022-09-29T11:15:22;2.10;;;1.50;;
74535;SDS011;63013;51.104;-115.370;2022-09-29T11:17:55;1.50;;;1.30;;
74535;SDS011;63013;51.104;-115.370;2022-09-29T11:20:28;1.70;;;1.30;;
74535;SDS011;63013;51.104;-115.370;2022-09-29T11:23:16;1.70;;;1.50;;
74535;SDS011;63013;51.104;-115.370;2022-09-29T11:26:11;1.30;;;1.20;;
74535;SDS011;63013;51.104;-115.370;2022-09-29T11:28:57;2.60;;;1.50;;
74535;SDS011;63013;51.104;-115.370;2022-09-29T11:51:00;1.30;;;1.20;;
74535;SDS011;63013;51.104;-115.370;2022-09-29T11:53:59;2.00;;;1.60;;
74535;SDS011;63013;51.104;-115.370;2022-09-29T11:57:08;2.10;;;1.40;;
74535;SDS011;63013;51.104;-115.370;2022-09-29T12:00:15;1.90;;;1.40;;
74535;SDS011;63013;51.104;-115.370;2022-09-29T12:03:04;1.60;;;1.40;;
74535;SDS011;63013;51.104;-115.370;2022-09-29T12:09:06;1.90;;;1.40;;
74535;SDS011;63013;51.104;-115.370;2022-09-29T12:18:06;1.40;;;1.20;;
74535;SDS011;63013;51.104;-115.370;2022-09-29T12:20:45;2.30;;;1.50;;
74535;SDS011;63013;51.104;-115.370;2022-09-29T12:23:17;1.40;;;1.30;;
74535;SDS011;63013;51.104;-115.370;2022-09-29T12:26:08;1.80;;;1.40;;
74535;SDS011;63013;51.104;-115.370;2022-09-29T12:29:00;1.70;;;1.30;;
74535;SDS011;63013;51.104;-115.370;2022-09-29T12:31:49;2.10;;;1.50;;
74535;SDS011;63013;51.104;-115.370;2022-09-29T12:35:12;2.00;;;1.40;;
74535;SDS011;63013;51.104;-115.370;2022-09-29T12:38:10;1.90;;;1.40;;
74535;SDS011;63013;51.104;-115.370;2022-09-29T12:41:07;1.70;;;1.40;;
74535;SDS011;63013;51.104;-115.370;2022-09-29T12:44:11;2.00;;;1.40;;
74535;SDS011;63013;51.104;-115.370;2022-09-29T12:47:27;1.90;;;1.60;;
74535;SDS011;63013;51.104;-115.370;2022-09-29T12:50:22;1.80;;;1.30;;
74535;SDS011;63013;51.104;-115.370;2022-09-29T12:55:56;1.50;;;1.40;;
74535;SDS011;63013;51.104;-115.370;2022-09-29T12:59:24;1.60;;;1.50;;
74535;SDS011;63013;51.104;-115.370;2022-09-29T13:01:55;1.50;;;1.30;;
74535;SDS011;63013;51.104;-115.370;2022-09-29T13:04:32;1.70;;;1.50;;
74535;SDS011;63013;51.104;-115.370;2022-09-29T13:13:45;1.80;;;1.20;;
74535;SDS011;63013;51.104;-115.370;2022-09-29T13:17:03;1.70;;;1.30;;
74535;SDS011;63013;51.104;-115.370;2022-09-29T13:20:04;1.40;;;1.10;;
74535;SDS011;63013;51.104;-115.370;2022-09-29T13:28:48;1.30;;;1.10;;
74535;SDS011;63013;51.104;-115.370;2022-09-29T13:31:22;2.20;;;1.70;;
74535;SDS011;63013;51.104;-115.370;2022-09-29T13:33:59;1.50;;;1.30;;
74535;SDS011;63013;51.104;-115.370;2022-09-29T13:36:33;1.80;;;1.40;;
74535;SDS011;63013;51.104;-115.370;2022-09-29T13:39:24;1.70;;;1.50;;
74535;SDS011;63013;51.104;-115.370;2022-09-29T13:41:54;2.00;;;1.40;;
74535;SDS011;63013;51.104;-115.370;2022-09-29T13:44:27;1.90;;;1.30;;
74535;SDS011;63013;51.104;-115.370;2022-09-29T13:46:55;1.50;;;1.30;;
74535;SDS011;63013;51.104;-115.370;2022-09-29T13:49:42;1.70;;;1.60;;
74535;SDS011;63013;51.104;-115.370;2022-09-29T13:54:45;1.60;;;1.40;;
74535;SDS011;63013;51.104;-115.370;2022-09-29T14:02:37;1.90;;;1.70;;
74535;SDS011;63013;51.104;-115.370;2022-09-29T14:10:43;2.40;;;1.80;;
74535;SDS011;63013;51.104;-115.370;2022-09-29T14:16:13;1.60;;;1.40;;
74535;SDS011;63013;51.104;-115.370;2022-09-29T14:18:52;2.70;;;1.80;;
74535;SDS011;63013;51.104;-115.370;2022-09-29T14:21:49;1.60;;;1.50;;
74535;SDS011;63013;51.104;-115.370;2022-09-29T14:27:30;2.10;;;1.50;;
74535;SDS011;63013;51.104;-115.370;2022-09-29T14:30:42;3.00;;;1.70;;
74535;SDS011;63013;51.104;-115.370;2022-09-29T14:36:04;2.10;;;1.70;;
74535;SDS011;63013;51.104;-115.370;2022-09-29T14:38:49;1.60;;;1.50;;
74535;SDS011;63013;51.104;-115.370;2022-09-29T14:41:28;2.70;;;1.60;;
74535;SDS011;63013;51.104;-115.370;2022-09-29T14:44:31;2.40;;;2.00;;
74535;SDS011;63013;51.104;-115.370;2022-09-29T14:51:03;2.00;;;1.70;;
74535;SDS011;63013;51.104;-115.370;2022-09-29T15:00:18;1.60;;;1.50;;
74535;SDS011;63013;51.104;-115.370;2022-09-29T15:02:54;1.90;;;1.60;;
74535;SDS011;63013;51.104;-115.370;2022-09-29T15:05:29;2.10;;;1.70;;
74535;SDS011;63013;51.104;-115.370;2022-09-29T15:07:59;3.00;;;1.70;;
74535;SDS011;63013;51.104;-115.370;2022-09-29T15:10:48;3.00;;;2.10;;
74535;SDS011;63013;51.104;-115.370;2022-09-29T15:13:26;1.60;;;1.40;;
74535;SDS011;63013;51.104;-115.370;2022-09-29T15:16:16;1.80;;;1.50;;
74535;SDS011;63013;51.104;-115.370;2022-09-29T15:25:30;1.50;;;1.40;;
74535;SDS011;63013;51.104;-115.370;2022-09-29T15:28:18;1.80;;;1.70;;
74535;SDS011;63013;51.104;-115.370;2022-09-29T15:30:53;2.00;;;1.60;;
74535;SDS011;63013;51.104;-115.370;2022-09-29T15:33:28;1.90;;;1.70;;
74535;SDS011;63013;51.104;-115.370;2022-09-29T15:36:03;3.20;;;1.80;;
74535;SDS011;63013;51.104;-115.370;2022-09-29T15:38:37;2.20;;;1.90;;
74535;SDS011;63013;51.104;-115.370;2022-09-29T15:43:58;2.40;;;2.10;;
74535;SDS011;63013;51.104;-115.370;2022-09-29T15:46:39;2.80;;;2.20;;
74535;SDS011;63013;51.104;-115.370;2022-09-29T15:49:19;2.30;;;1.90;;
74535;SDS011;63013;51.104;-115.370;2022-09-29T15:51:59;2.30;;;2.00;;
74535;SDS011;63013;51.104;-115.370;2022-09-29T15:54:36;2.60;;;2.10;;
74535;SDS011;63013;51.104;-115.370;2022-09-29T16:03:22;3.90;;;2.20;;
74535;SDS011;63013;51.104;-115.370;2022-09-29T16:08:48;3.10;;;2.40;;
74535;SDS011;63013;51.104;-115.370;2022-09-29T16:11:37;2.60;;;2.10;;
74535;SDS011;63013;51.104;-115.370;2022-09-29T16:14:30;2.70;;;2.20;;
74535;SDS011;63013;51.104;-115.370;2022-09-29T16:16:59;3.30;;;2.40;;
74535;SDS011;63013;51.104;-115.370;2022-09-29T16:19:28;3.70;;;2.20;;
74535;SDS011;63013;51.104;-115.370;2022-09-29T16:22:02;2.70;;;2.20;;
74535;SDS011;63013;51.104;-115.370;2022-09-29T16:24:35;2.40;;;2.20;;
74535;SDS011;63013;51.104;-115.370;2022-09-29T16:27:45;3.30;;;2.50;;
74535;SDS011;63013;51.104;-115.370;2022-09-29T16:30:32;4.50;;;2.50;;
74535;SDS011;63013;51.104;-115.370;2022-09-29T16:33:14;2.60;;;2.30;;
74535;SDS011;63013;51.104;-115.370;2022-09-29T16:35:54;3.10;;;2.30;;
74535;SDS011;63013;51.104;-115.370;2022-09-29T16:38:43;3.80;;;2.50;;
74535;SDS011;63013;51.104;-115.370;2022-09-29T16:41:32;3.10;;;2.70;;
74535;SDS011;63013;51.104;-115.370;2022-09-29T16:50:05;3.60;;;2.50;;
74535;SDS011;63013;51.104;-115.370;2022-09-29T16:52:47;3.00;;;2.60;;
74535;SDS011;63013;51.104;-115.370;2022-09-29T16:58:01;3.10;;;2.80;;
74535;SDS011;63013;51.104;-115.370;2022-09-29T17:00:37;4.70;;;2.90;;
74535;SDS011;63013;51.104;-115.370;2022-09-29T17:03:05;3.10;;;2.40;;
74535;SDS011;63013;51.104;-115.370;2022-09-29T17:05:41;3.60;;;2.70;;
74535;SDS011;63013;51.104;-115.370;2022-09-29T17:08:21;3.00;;;2.50;;
74535;SDS011;63013;51.104;-115.370;2022-09-29T17:10:53;3.30;;;2.60;;
74535;SDS011;63013;51.104;-115.370;2022-09-29T17:13:22;3.60;;;2.80;;
74535;SDS011;63013;51.104;-115.370;2022-09-29T17:16:01;3.40;;;2.70;;
74535;SDS011;63013;51.104;-115.370;2022-09-29T17:18:31;3.50;;;2.60;;
74535;SDS011;63013;51.104;-115.370;2022-09-29T17:20:58;4.30;;;2.70;;
74535;SDS011;63013;51.104;-115.370;2022-09-29T17:23:26;3.90;;;2.80;;
74535;SDS011;63013;51.104;-115.370;2022-09-29T17:25:53;4.20;;;2.90;;
74535;SDS011;63013;51.104;-115.370;2022-09-29T17:28:40;3.70;;;2.70;;
74535;SDS011;63013;51.104;-115.370;2022-09-29T17:31:10;3.50;;;3.00;;
74535;SDS011;63013;51.104;-115.370;2022-09-29T17:33:38;3.90;;;2.90;;
74535;SDS011;63013;51.104;-115.370;2022-09-29T17:36:08;3.70;;;2.80;;
74535;SDS011;63013;51.104;-115.370;2022-09-29T17:38:39;3.30;;;2.70;;
74535;SDS011;63013;51.104;-115.370;2022-09-29T17:41:08;4.00;;;2.50;;
74535;SDS011;63013;51.104;-115.370;2022-09-29T17:43:41;5.10;;;3.20;;
74535;SDS011;63013;51.104;-115.370;2022-09-29T17:46:13;3.20;;;2.80;;
74535;SDS011;63013;51.104;-115.370;2022-09-29T17:48:41;4.10;;;3.00;;
74535;SDS011;63013;51.104;-115.370;2022-09-29T17:51:11;3.80;;;2.60;;
74535;SDS011;63013;51.104;-115.370;2022-09-29T17:53:43;4.20;;;2.80;;
74535;SDS011;63013;51.104;-115.370;2022-09-29T17:56:22;4.30;;;3.00;;
74535;SDS011;63013;51.104;-115.370;2022-09-29T17:58:57;3.10;;;2.70;;
74535;SDS011;63013;51.104;-115.370;2022-09-29T18:01:28;3.80;;;3.10;;